createdAt,value
2024-05-09T00:00:29.740Z,521.00
2024-05-09T00:01:22.194Z,521.00
2024-05-09T00:02:21.168Z,521.00
2024-05-09T00:03:21.199Z,520.00
2024-05-09T00:04:21.163Z,521.00
2024-05-09T00:05:21.363Z,523.00
2024-05-09T00:06:21.150Z,524.00
2024-05-09T00:07:21.134Z,524.00
2024-05-09T00:08:21.210Z,526.00
2024-05-09T00:09:21.154Z,519.00
2024-05-09T00:10:25.613Z,515.00
2024-05-09T00:11:22.270Z,512.00
2024-05-09T00:12:21.786Z,514.00
2024-05-09T00:13:21.176Z,515.00
2024-05-09T00:14:21.240Z,518.00
2024-05-09T00:15:21.135Z,520.00
2024-05-09T00:16:21.178Z,518.00
2024-05-09T00:17:21.770Z,515.00
2024-05-09T00:18:21.411Z,515.00
2024-05-09T00:19:21.321Z,517.00
2024-05-09T00:20:28.081Z,514.00
2024-05-09T00:21:22.177Z,514.00
2024-05-09T00:22:21.172Z,514.00
2024-05-09T00:23:21.246Z,511.00
2024-05-09T00:24:21.187Z,511.00
2024-05-09T00:25:21.194Z,512.00
2024-05-09T00:26:21.200Z,511.00
2024-05-09T00:27:21.641Z,514.00
2024-05-09T00:28:21.183Z,513.00
2024-05-09T00:29:21.270Z,507.00
2024-05-09T00:30:28.227Z,507.00
2024-05-09T00:31:22.175Z,508.00
2024-05-09T00:32:21.526Z,506.00
2024-05-09T00:33:21.663Z,510.00
2024-05-09T00:34:21.401Z,516.00
2024-05-09T00:35:21.317Z,514.00
2024-05-09T00:36:21.210Z,514.00
2024-05-09T00:37:21.236Z,513.00
2024-05-09T00:38:21.355Z,512.00
2024-05-09T00:39:21.213Z,514.00
2024-05-09T00:40:30.822Z,512.00
2024-05-09T00:41:22.229Z,514.00
2024-05-09T00:42:21.248Z,516.00
2024-05-09T00:43:21.227Z,514.00
2024-05-09T00:44:21.261Z,512.00
2024-05-09T00:45:21.231Z,513.00
2024-05-09T00:46:21.223Z,513.00
2024-05-09T00:47:21.452Z,510.00
2024-05-09T00:48:21.752Z,508.00
2024-05-09T00:49:21.466Z,510.00
2024-05-09T00:50:29.444Z,512.00
2024-05-09T00:51:22.311Z,512.00
2024-05-09T00:52:21.222Z,515.00
2024-05-09T00:53:21.426Z,515.00
2024-05-09T00:54:21.231Z,515.00
2024-05-09T00:55:21.255Z,514.00
2024-05-09T00:56:21.271Z,518.00
2024-05-09T00:57:21.235Z,517.00
2024-05-09T00:58:21.260Z,517.00
2024-05-09T00:59:21.402Z,519.00
2024-05-09T01:00:27.329Z,518.00
2024-05-09T01:01:22.271Z,517.00
2024-05-09T01:02:21.403Z,516.00
2024-05-09T01:03:21.734Z,515.00
2024-05-09T01:04:21.300Z,514.00
2024-05-09T01:05:21.259Z,513.00
2024-05-09T01:06:21.275Z,513.00
2024-05-09T01:07:21.264Z,511.00
2024-05-09T01:08:21.558Z,513.00
2024-05-09T01:09:21.300Z,511.00
2024-05-09T01:10:27.751Z,513.00
2024-05-09T01:11:22.364Z,512.00
2024-05-09T01:12:21.455Z,507.00
2024-05-09T01:13:21.295Z,510.00
2024-05-09T01:14:21.326Z,510.00
2024-05-09T01:15:21.285Z,511.00
2024-05-09T01:16:21.281Z,510.00
2024-05-09T01:17:21.363Z,509.00
2024-05-09T01:18:21.432Z,508.00
2024-05-09T01:19:21.554Z,510.00
2024-05-09T01:21:21.339Z,510.00
2024-05-09T01:22:21.666Z,509.00
2024-05-09T01:23:21.341Z,509.00
2024-05-09T01:24:21.312Z,511.00
2024-05-09T01:25:21.308Z,511.00
2024-05-09T01:26:21.352Z,513.00
2024-05-09T01:27:21.368Z,513.00
2024-05-09T01:28:21.302Z,514.00
2024-05-09T01:29:21.352Z,512.00
2024-05-09T01:30:27.800Z,509.00
2024-05-09T01:31:22.315Z,508.00
2024-05-09T01:32:21.508Z,508.00
2024-05-09T01:33:21.485Z,509.00
2024-05-09T01:34:21.416Z,510.00
2024-05-09T01:35:21.404Z,512.00
2024-05-09T01:36:21.305Z,510.00
2024-05-09T01:37:21.659Z,510.00
2024-05-09T01:38:21.338Z,510.00
2024-05-09T01:39:21.328Z,503.00
2024-05-09T01:40:28.509Z,502.00
2024-05-09T01:41:22.353Z,504.00
2024-05-09T01:42:21.311Z,504.00
2024-05-09T01:43:21.321Z,502.00
2024-05-09T01:44:21.436Z,505.00
2024-05-09T01:45:21.362Z,508.00
2024-05-09T01:46:21.308Z,504.00
2024-05-09T01:47:21.453Z,498.00
2024-05-09T01:48:21.456Z,498.00
2024-05-09T01:49:21.499Z,497.00
2024-05-09T01:50:33.049Z,500.00
2024-05-09T01:51:22.351Z,501.00
2024-05-09T01:52:21.346Z,503.00
2024-05-09T01:53:21.387Z,502.00
2024-05-09T01:54:21.337Z,503.00
2024-05-09T01:55:21.331Z,504.00
2024-05-09T01:56:21.356Z,503.00
2024-05-09T01:57:21.702Z,504.00
2024-05-09T01:58:21.339Z,505.00
2024-05-09T01:59:21.459Z,505.00
2024-05-09T02:01:21.408Z,506.00
2024-05-09T02:02:21.508Z,504.00
2024-05-09T02:03:21.569Z,505.00
2024-05-09T02:04:21.536Z,508.00
2024-05-09T02:05:21.425Z,508.00
2024-05-09T02:06:21.366Z,510.00
2024-05-09T02:07:21.359Z,506.00
2024-05-09T02:08:21.978Z,509.00
2024-05-09T02:09:21.347Z,512.00
2024-05-09T02:10:26.402Z,514.00
2024-05-09T02:11:22.475Z,510.00
2024-05-09T02:12:21.468Z,507.00
2024-05-09T02:13:21.360Z,507.00
2024-05-09T02:14:21.402Z,505.00
2024-05-09T02:15:21.358Z,509.00
2024-05-09T02:16:21.364Z,506.00
2024-05-09T02:17:21.471Z,504.00
2024-05-09T02:18:21.440Z,502.00
2024-05-09T02:19:21.463Z,502.00
2024-05-09T02:20:29.782Z,501.00
2024-05-09T02:21:22.370Z,501.00
2024-05-09T02:22:21.389Z,499.00
2024-05-09T02:23:21.402Z,499.00
2024-05-09T02:24:21.366Z,501.00
2024-05-09T02:25:21.375Z,501.00
2024-05-09T02:26:21.442Z,501.00
2024-05-09T02:27:21.387Z,504.00
2024-05-09T02:28:21.398Z,505.00
2024-05-09T02:29:21.445Z,504.00
2024-05-09T02:30:26.372Z,497.00
2024-05-09T02:31:22.390Z,499.00
2024-05-09T02:32:21.798Z,500.00
2024-05-09T02:33:21.861Z,498.00
2024-05-09T02:34:21.475Z,501.00
2024-05-09T02:35:21.555Z,502.00
2024-05-09T02:36:21.398Z,504.00
2024-05-09T02:37:21.415Z,508.00
2024-05-09T02:38:21.531Z,506.00
2024-05-09T02:39:21.411Z,504.00
2024-05-09T02:40:25.762Z,507.00
2024-05-09T02:41:22.493Z,505.00
2024-05-09T02:42:21.446Z,504.00
2024-05-09T02:43:21.424Z,502.00
2024-05-09T02:44:21.460Z,503.00
2024-05-09T02:45:21.424Z,502.00
2024-05-09T02:46:21.437Z,503.00
2024-05-09T02:47:21.613Z,499.00
2024-05-09T02:48:21.669Z,499.00
2024-05-09T02:49:21.695Z,500.00
2024-05-09T02:51:21.412Z,499.00
2024-05-09T02:52:21.437Z,497.00
2024-05-09T02:53:21.508Z,496.00
2024-05-09T02:54:21.430Z,495.00
2024-05-09T02:55:21.417Z,495.00
2024-05-09T02:56:21.501Z,497.00
2024-05-09T02:57:21.446Z,496.00
2024-05-09T02:58:21.458Z,495.00
2024-05-09T02:59:21.718Z,494.00
2024-05-09T03:00:26.484Z,495.00
2024-05-09T03:01:22.512Z,494.00
2024-05-09T03:02:21.814Z,496.00
2024-05-09T03:03:21.690Z,493.00
2024-05-09T03:04:21.534Z,493.00
2024-05-09T03:05:21.492Z,495.00
2024-05-09T03:06:21.464Z,496.00
2024-05-09T03:07:21.471Z,494.00
2024-05-09T03:08:21.549Z,493.00
2024-05-09T03:09:21.454Z,494.00
2024-05-09T03:10:25.435Z,495.00
2024-05-09T03:11:22.557Z,496.00
2024-05-09T03:12:21.595Z,496.00
2024-05-09T03:13:21.460Z,499.00
2024-05-09T03:14:21.520Z,496.00
2024-05-09T03:15:21.472Z,494.00
2024-05-09T03:16:21.483Z,495.00
2024-05-09T03:17:21.587Z,497.00
2024-05-09T03:18:21.567Z,500.00
2024-05-09T03:19:21.685Z,500.00
2024-05-09T03:20:27.321Z,501.00
2024-05-09T03:21:22.486Z,500.00
2024-05-09T03:22:21.497Z,500.00
2024-05-09T03:23:21.516Z,499.00
2024-05-09T03:24:21.505Z,498.00
2024-05-09T03:25:21.499Z,500.00
2024-05-09T03:26:21.566Z,495.00
2024-05-09T03:27:21.509Z,494.00
2024-05-09T03:28:21.477Z,494.00
2024-05-09T03:29:21.610Z,493.00
2024-05-09T03:30:28.719Z,492.00
2024-05-09T03:31:22.516Z,495.00
2024-05-09T03:32:21.652Z,495.00
2024-05-09T03:33:21.993Z,494.00
2024-05-09T03:34:21.555Z,493.00
2024-05-09T03:35:21.611Z,492.00
2024-05-09T03:36:21.516Z,491.00
2024-05-09T03:37:21.532Z,494.00
2024-05-09T03:38:21.534Z,494.00
2024-05-09T03:39:21.496Z,494.00
2024-05-09T03:40:26.367Z,494.00
2024-05-09T03:41:22.674Z,491.00
2024-05-09T03:42:21.517Z,491.00
2024-05-09T03:43:21.534Z,489.00
2024-05-09T03:44:21.562Z,490.00
2024-05-09T03:45:21.551Z,491.00
2024-05-09T03:46:21.547Z,490.00
2024-05-09T03:47:21.778Z,491.00
2024-05-09T03:48:21.789Z,496.00
2024-05-09T03:49:21.811Z,495.00
2024-05-09T03:50:26.183Z,494.00
2024-05-09T03:51:22.551Z,492.00
2024-05-09T03:52:21.545Z,490.00
2024-05-09T03:53:21.544Z,491.00
2024-05-09T03:54:21.550Z,491.00
2024-05-09T03:55:21.543Z,492.00
2024-05-09T03:56:21.632Z,489.00
2024-05-09T03:57:21.563Z,490.00
2024-05-09T03:58:21.533Z,489.00
2024-05-09T03:59:21.587Z,489.00
2024-05-09T04:00:26.693Z,488.00
2024-05-09T04:01:22.615Z,488.00
2024-05-09T04:02:21.876Z,487.00
2024-05-09T04:03:21.708Z,485.00
2024-05-09T04:04:21.599Z,489.00
2024-05-09T04:05:21.610Z,490.00
2024-05-09T04:06:21.582Z,488.00
2024-05-09T04:07:21.549Z,488.00
2024-05-09T04:08:21.630Z,492.00
2024-05-09T04:09:21.567Z,492.00
2024-05-09T04:10:27.958Z,492.00
2024-05-09T04:11:22.689Z,492.00
2024-05-09T04:12:21.593Z,491.00
2024-05-09T04:13:21.564Z,487.00
2024-05-09T04:14:21.636Z,492.00
2024-05-09T04:15:21.589Z,489.00
2024-05-09T04:16:21.594Z,496.00
2024-05-09T04:17:21.609Z,496.00
2024-05-09T04:18:21.682Z,497.00
2024-05-09T04:19:21.767Z,501.00
2024-05-09T04:21:21.589Z,501.00
2024-05-09T04:22:21.586Z,500.00
2024-05-09T04:23:21.630Z,498.00
2024-05-09T04:24:21.601Z,500.00
2024-05-09T04:25:21.614Z,499.00
2024-05-09T04:26:21.748Z,495.00
2024-05-09T04:27:21.587Z,492.00
2024-05-09T04:28:21.581Z,489.00
2024-05-09T04:29:21.650Z,490.00
2024-05-09T04:30:30.633Z,491.00
2024-05-09T04:31:22.611Z,491.00
2024-05-09T04:32:21.777Z,487.00
2024-05-09T04:33:21.956Z,489.00
2024-05-09T04:34:21.753Z,493.00
2024-05-09T04:35:21.680Z,492.00
2024-05-09T04:36:21.612Z,495.00
2024-05-09T04:37:21.622Z,492.00
2024-05-09T04:38:21.653Z,493.00
2024-05-09T04:39:21.611Z,496.00
2024-05-09T04:40:28.536Z,495.00
2024-05-09T04:41:22.660Z,496.00
2024-05-09T04:42:21.621Z,495.00
2024-05-09T04:43:21.644Z,495.00
2024-05-09T04:44:21.658Z,494.00
2024-05-09T04:45:21.608Z,497.00
2024-05-09T04:46:29.428Z,505.00
2024-05-09T04:47:29.511Z,498.00
2024-05-09T04:48:29.544Z,498.00
2024-05-09T04:49:29.537Z,496.00
2024-05-09T04:50:35.856Z,489.00
2024-05-09T04:51:30.435Z,484.00
2024-05-09T04:52:29.423Z,483.00
2024-05-09T04:53:29.464Z,485.00
2024-05-09T04:54:35.859Z,487.00
2024-05-09T04:55:30.527Z,488.00
2024-05-09T04:56:29.514Z,492.00
2024-05-09T04:57:29.478Z,492.00
2024-05-09T04:58:29.464Z,494.00
2024-05-09T04:59:29.547Z,497.00
2024-05-09T05:00:35.657Z,498.00
2024-05-09T05:01:30.487Z,499.00
2024-05-09T05:02:29.539Z,502.00
2024-05-09T05:03:29.646Z,501.00
2024-05-09T05:04:29.489Z,502.00
2024-05-09T05:05:29.484Z,497.00
2024-05-09T05:06:29.488Z,499.00
2024-05-09T05:07:29.480Z,499.00
2024-05-09T05:08:29.502Z,499.00
2024-05-09T05:09:29.477Z,498.00
2024-05-09T05:10:35.497Z,498.00
2024-05-09T05:11:30.548Z,495.00
2024-05-09T05:12:29.581Z,496.00
2024-05-09T05:13:29.488Z,492.00
2024-05-09T05:14:29.514Z,494.00
2024-05-09T05:15:29.499Z,494.00
2024-05-09T05:16:29.482Z,495.00
2024-05-09T05:17:29.659Z,498.00
2024-05-09T05:18:29.730Z,501.00
2024-05-09T05:19:29.652Z,499.00
2024-05-09T05:20:33.576Z,500.00
2024-05-09T05:21:29.578Z,501.00
2024-05-09T05:22:29.500Z,500.00
2024-05-09T05:23:29.575Z,498.00
2024-05-09T05:24:29.518Z,498.00
2024-05-09T05:25:29.499Z,500.00
2024-05-09T05:26:29.587Z,502.00
2024-05-09T05:27:29.515Z,501.00
2024-05-09T05:28:29.482Z,498.00
2024-05-09T05:29:29.555Z,500.00
2024-05-09T05:30:34.462Z,500.00
2024-05-09T05:31:30.552Z,502.00
2024-05-09T05:32:29.601Z,502.00
2024-05-09T05:33:29.652Z,500.00
2024-05-09T05:34:29.526Z,503.00
2024-05-09T05:35:29.594Z,503.00
2024-05-09T05:36:29.509Z,502.00
2024-05-09T05:37:29.511Z,500.00
2024-05-09T05:38:29.524Z,504.00
2024-05-09T05:39:29.514Z,501.00
2024-05-09T05:40:36.166Z,502.00
2024-05-09T05:41:30.640Z,504.00
2024-05-09T05:42:29.504Z,501.00
2024-05-09T05:43:29.523Z,498.00
2024-05-09T05:44:29.656Z,503.00
2024-05-09T05:45:29.549Z,501.00
2024-05-09T05:46:29.547Z,506.00
2024-05-09T05:47:29.658Z,509.00
2024-05-09T05:48:29.637Z,506.00
2024-05-09T05:49:29.623Z,499.00
2024-05-09T05:50:35.522Z,498.00
2024-05-09T05:51:30.556Z,498.00
2024-05-09T05:52:29.546Z,495.00
2024-05-09T05:53:29.547Z,494.00
2024-05-09T05:54:29.578Z,497.00
2024-05-09T05:55:29.567Z,501.00
2024-05-09T05:56:29.573Z,500.00
2024-05-09T05:57:29.543Z,497.00
2024-05-09T05:58:29.532Z,496.00
2024-05-09T05:59:29.691Z,497.00
2024-05-09T06:00:36.986Z,494.00
2024-05-09T06:01:30.654Z,494.00
2024-05-09T06:02:29.567Z,494.00
2024-05-09T06:03:29.692Z,497.00
2024-05-09T06:04:29.665Z,497.00
2024-05-09T06:05:29.620Z,498.00
2024-05-09T06:06:29.570Z,498.00
2024-05-09T06:07:29.597Z,499.00
2024-05-09T06:08:30.551Z,500.00
2024-05-09T06:09:29.556Z,500.00
2024-05-09T06:10:35.229Z,500.00
2024-05-09T06:11:30.729Z,504.00
2024-05-09T06:12:29.643Z,501.00
2024-05-09T06:13:29.578Z,500.00
2024-05-09T06:14:29.749Z,500.00
2024-05-09T06:15:29.585Z,500.00
2024-05-09T06:16:29.599Z,499.00
2024-05-09T06:17:29.743Z,498.00
2024-05-09T06:18:29.904Z,497.00
2024-05-09T06:19:29.728Z,497.00
2024-05-09T06:20:35.347Z,492.00
2024-05-09T06:21:30.618Z,493.00
2024-05-09T06:22:29.618Z,493.00
2024-05-09T06:23:29.656Z,493.00
2024-05-09T06:24:29.588Z,493.00
2024-05-09T06:25:29.614Z,491.00
2024-05-09T06:26:29.648Z,494.00
2024-05-09T06:27:29.608Z,494.00
2024-05-09T06:28:29.609Z,495.00
2024-05-09T06:29:29.650Z,497.00
2024-05-09T06:30:37.174Z,497.00
2024-05-09T06:31:30.629Z,496.00
2024-05-09T06:32:29.721Z,494.00
2024-05-09T06:33:29.928Z,493.00
2024-05-09T06:34:29.772Z,492.00
2024-05-09T06:35:29.725Z,492.00
2024-05-09T06:36:29.598Z,494.00
2024-05-09T06:37:29.623Z,494.00
2024-05-09T06:38:29.654Z,496.00
2024-05-09T06:39:29.643Z,498.00
2024-05-09T06:40:36.538Z,496.00
2024-05-09T06:41:30.696Z,495.00
2024-05-09T06:42:29.611Z,496.00
2024-05-09T06:43:29.635Z,495.00
2024-05-09T06:44:29.676Z,494.00
2024-05-09T06:45:29.636Z,497.00
2024-05-09T06:46:29.640Z,499.00
2024-05-09T06:47:29.765Z,500.00
2024-05-09T06:48:29.787Z,500.00
2024-05-09T06:49:29.807Z,496.00
2024-05-09T06:50:35.774Z,494.00
2024-05-09T06:51:30.669Z,493.00
2024-05-09T06:52:29.651Z,494.00
2024-05-09T06:53:29.741Z,494.00
2024-05-09T06:54:29.667Z,495.00
2024-05-09T06:55:29.670Z,494.00
2024-05-09T06:56:29.772Z,496.00
2024-05-09T06:57:29.656Z,496.00
2024-05-09T06:58:29.658Z,499.00
2024-05-09T06:59:29.789Z,500.00
2024-05-09T07:00:35.957Z,500.00
2024-05-09T07:01:30.701Z,499.00
2024-05-09T07:02:29.711Z,500.00
2024-05-09T07:03:29.873Z,499.00
2024-05-09T07:04:29.777Z,498.00
2024-05-09T07:05:29.811Z,498.00
2024-05-09T07:06:29.679Z,497.00
2024-05-09T07:07:29.675Z,498.00
2024-05-09T07:08:29.725Z,500.00
2024-05-09T07:09:29.764Z,498.00
2024-05-09T07:10:34.814Z,498.00
2024-05-09T07:11:30.885Z,494.00
2024-05-09T07:12:29.908Z,494.00
2024-05-09T07:13:29.839Z,494.00
2024-05-09T07:14:29.993Z,495.00
2024-05-09T07:15:29.852Z,494.00
2024-05-09T07:16:29.836Z,495.00
2024-05-09T07:17:29.999Z,496.00
2024-05-09T07:18:30.001Z,495.00
2024-05-09T07:19:29.941Z,494.00
2024-05-09T07:20:34.504Z,495.00
2024-05-09T07:21:30.895Z,493.00
2024-05-09T07:22:29.945Z,490.00
2024-05-09T07:23:29.951Z,493.00
2024-05-09T07:24:29.919Z,495.00
2024-05-09T07:25:30.342Z,492.00
2024-05-09T07:26:29.994Z,488.00
2024-05-09T07:27:29.932Z,489.00
2024-05-09T07:28:29.972Z,491.00
2024-05-09T07:29:30.067Z,493.00
2024-05-09T07:30:33.393Z,491.00
2024-05-09T07:31:30.093Z,490.00
2024-05-09T07:32:30.269Z,489.00
2024-05-09T07:33:30.198Z,492.00
2024-05-09T07:34:30.197Z,493.00
2024-05-09T07:35:30.571Z,495.00
2024-05-09T07:36:30.111Z,493.00
2024-05-09T07:37:30.121Z,493.00
2024-05-09T07:38:30.120Z,492.00
2024-05-09T07:39:30.115Z,494.00
2024-05-09T07:40:35.647Z,492.00
2024-05-09T07:41:31.144Z,490.00
2024-05-09T07:42:30.123Z,487.00
2024-05-09T07:43:30.108Z,485.00
2024-05-09T07:44:30.222Z,483.00
2024-05-09T07:45:46.553Z,481.00
2024-05-09T07:47:37.078Z,480.00
2024-05-09T07:48:57.324Z,479.00
2024-05-09T07:50:01.261Z,479.00
2024-05-09T07:53:08.574Z,476.00
2024-05-09T07:53:32.667Z,478.00
2024-05-09T07:53:40.553Z,480.00
2024-05-09T07:54:31.253Z,480.00
2024-05-09T07:55:30.449Z,482.00
2024-05-09T07:56:30.747Z,484.00
2024-05-09T07:57:30.211Z,481.00
2024-05-09T07:58:30.162Z,480.00
2024-05-09T07:59:31.914Z,480.00
2024-05-09T08:00:31.854Z,480.00
2024-05-09T08:01:30.207Z,479.00
2024-05-09T08:02:30.268Z,480.00
2024-05-09T08:03:30.412Z,477.00
2024-05-09T08:04:30.380Z,476.00
2024-05-09T08:05:30.308Z,475.00
2024-05-09T08:06:30.261Z,477.00
2024-05-09T08:07:30.281Z,476.00
2024-05-09T08:08:30.323Z,479.00
2024-05-09T08:09:30.456Z,482.00
2024-05-09T08:10:30.519Z,483.00
2024-05-09T08:11:30.642Z,478.00
2024-05-09T08:12:30.599Z,476.00
2024-05-09T08:13:30.625Z,479.00
2024-05-09T08:14:30.665Z,479.00
2024-05-09T08:15:30.809Z,479.00
2024-05-09T08:16:30.863Z,480.00
2024-05-09T08:17:30.965Z,482.00
2024-05-09T08:18:31.216Z,483.00
2024-05-09T08:19:31.050Z,483.00
2024-05-09T08:20:35.073Z,484.00
2024-05-09T08:21:31.191Z,481.00
2024-05-09T08:22:31.069Z,480.00
2024-05-09T08:23:31.073Z,477.00
2024-05-09T08:24:31.120Z,474.00
2024-05-09T08:25:31.085Z,475.00
2024-05-09T08:26:31.071Z,469.00
2024-05-09T08:27:31.106Z,471.00
2024-05-09T08:28:31.080Z,470.00
2024-05-09T08:29:31.078Z,470.00
2024-05-09T08:30:36.536Z,471.00
2024-05-09T08:31:32.223Z,470.00
2024-05-09T08:32:31.202Z,473.00
2024-05-09T08:33:31.322Z,474.00
2024-05-09T08:34:31.175Z,474.00
2024-05-09T08:35:31.105Z,472.00
2024-05-09T08:36:31.171Z,473.00
2024-05-09T08:37:36.710Z,472.00
2024-05-09T08:38:32.098Z,471.00
2024-05-09T08:39:31.158Z,470.00
2024-05-09T08:40:35.245Z,467.00
2024-05-09T08:41:32.103Z,470.00
2024-05-09T08:42:31.133Z,472.00
2024-05-09T08:43:31.167Z,471.00
2024-05-09T08:44:31.116Z,470.00
2024-05-09T08:45:31.319Z,470.00
2024-05-09T08:46:31.152Z,471.00
2024-05-09T08:47:31.185Z,469.00
2024-05-09T08:48:31.368Z,470.00
2024-05-09T08:49:31.192Z,474.00
2024-05-09T08:50:37.926Z,476.00
2024-05-09T08:51:32.190Z,475.00
2024-05-09T08:52:31.126Z,476.00
2024-05-09T08:53:31.111Z,476.00
2024-05-09T08:54:31.183Z,476.00
2024-05-09T08:55:31.138Z,481.00
2024-05-09T08:56:31.149Z,476.00
2024-05-09T08:57:31.157Z,477.00
2024-05-09T08:58:31.139Z,480.00
2024-05-09T08:59:31.146Z,482.00
2024-05-09T09:00:36.601Z,486.00
2024-05-09T09:01:32.339Z,488.00
2024-05-09T09:02:31.327Z,487.00
2024-05-09T09:03:31.899Z,481.00
2024-05-09T09:04:31.299Z,482.00
2024-05-09T09:05:31.656Z,481.00
2024-05-09T09:06:31.271Z,482.00
2024-05-09T09:07:31.217Z,483.00
2024-05-09T09:08:31.224Z,481.00
2024-05-09T09:09:31.229Z,478.00
2024-05-09T09:10:32.718Z,476.00
2024-05-09T09:11:31.326Z,477.00
2024-05-09T09:12:31.401Z,475.00
2024-05-09T09:13:31.640Z,474.00
2024-05-09T09:14:31.394Z,477.00
2024-05-09T09:15:31.543Z,480.00
2024-05-09T09:16:31.538Z,479.00
2024-05-09T09:17:31.693Z,479.00
2024-05-09T09:18:31.964Z,477.00
2024-05-09T09:19:31.806Z,477.00
2024-05-09T09:20:36.324Z,479.00
2024-05-09T09:21:32.807Z,479.00
2024-05-09T09:22:31.768Z,481.00
2024-05-09T09:23:31.890Z,480.00
2024-05-09T09:24:31.820Z,482.00
2024-05-09T09:25:32.010Z,483.00
2024-05-09T09:26:31.761Z,483.00
2024-05-09T09:27:31.828Z,485.00
2024-05-09T09:28:31.780Z,479.00
2024-05-09T09:29:31.802Z,479.00
2024-05-09T09:30:36.899Z,475.00
2024-05-09T09:31:33.139Z,472.00
2024-05-09T09:32:31.901Z,474.00
2024-05-09T09:33:32.427Z,474.00
2024-05-09T09:34:32.073Z,470.00
2024-05-09T09:35:31.853Z,467.00
2024-05-09T09:36:31.938Z,466.00
2024-05-09T09:37:31.863Z,469.00
2024-05-09T09:38:31.931Z,472.00
2024-05-09T09:39:31.948Z,473.00
2024-05-09T09:40:34.026Z,475.00
2024-05-09T09:41:31.984Z,475.00
2024-05-09T09:42:31.986Z,476.00
2024-05-09T09:43:31.991Z,477.00
2024-05-09T09:45:32.008Z,477.00
2024-05-09T09:46:32.069Z,476.00
2024-05-09T09:47:32.093Z,476.00
2024-05-09T09:48:32.174Z,475.00
2024-05-09T09:49:32.038Z,474.00
2024-05-09T09:50:34.734Z,473.00
2024-05-09T09:51:32.040Z,471.00
2024-05-09T09:52:32.040Z,469.00
2024-05-09T09:53:32.028Z,469.00
2024-05-09T09:54:32.066Z,466.00
2024-05-09T09:55:32.015Z,468.00
2024-05-09T09:56:32.032Z,470.00
2024-05-09T09:57:32.034Z,467.00
2024-05-09T09:58:32.032Z,468.00
2024-05-09T09:59:31.991Z,469.00
2024-05-09T10:00:33.442Z,472.00
2024-05-09T10:01:32.086Z,474.00
2024-05-09T10:02:32.178Z,477.00
2024-05-09T10:03:32.226Z,476.00
2024-05-09T10:04:32.140Z,475.00
2024-05-09T10:05:32.206Z,473.00
2024-05-09T10:06:32.050Z,470.00
2024-05-09T10:07:32.015Z,473.00
2024-05-09T10:08:32.022Z,471.00
2024-05-09T10:09:32.142Z,471.00
2024-05-09T10:10:33.251Z,472.00
2024-05-09T10:11:34.879Z,472.00
2024-05-09T10:12:32.262Z,474.00
2024-05-09T10:13:32.268Z,472.00
2024-05-09T10:14:32.238Z,471.00
2024-05-09T10:15:32.262Z,471.00
2024-05-09T10:16:32.251Z,475.00
2024-05-09T10:17:32.349Z,474.00
2024-05-09T10:18:34.291Z,473.00
2024-05-09T10:19:32.314Z,473.00
2024-05-09T10:20:32.921Z,470.00
2024-05-09T10:21:32.448Z,470.00
2024-05-09T10:22:32.468Z,471.00
2024-05-09T10:23:32.726Z,469.00
2024-05-09T10:24:32.628Z,470.00
2024-05-09T10:25:32.748Z,468.00
2024-05-09T10:26:33.672Z,468.00
2024-05-09T10:27:32.864Z,467.00
2024-05-09T10:28:32.936Z,465.00
2024-05-09T10:29:32.923Z,464.00
2024-05-09T10:30:36.191Z,466.00
2024-05-09T10:31:32.983Z,466.00
2024-05-09T10:32:33.137Z,470.00
2024-05-09T10:33:33.111Z,471.00
2024-05-09T10:34:33.077Z,474.00
2024-05-09T10:35:32.986Z,473.00
2024-05-09T10:36:32.987Z,475.00
2024-05-09T10:37:33.058Z,475.00
2024-05-09T10:38:33.000Z,473.00
2024-05-09T10:39:33.051Z,472.00
2024-05-09T10:40:33.124Z,470.00
2024-05-09T10:41:32.973Z,472.00
2024-05-09T10:42:33.005Z,475.00
2024-05-09T10:43:32.987Z,473.00
2024-05-09T10:44:32.966Z,475.00
2024-05-09T10:45:33.015Z,473.00
2024-05-09T10:46:33.006Z,472.00
2024-05-09T10:47:33.066Z,471.00
2024-05-09T10:48:33.082Z,474.00
2024-05-09T10:49:33.020Z,476.00
2024-05-09T10:50:34.523Z,477.00
2024-05-09T10:51:33.022Z,477.00
2024-05-09T10:52:32.998Z,477.00
2024-05-09T10:53:33.016Z,474.00
2024-05-09T10:54:33.043Z,476.00
2024-05-09T10:55:33.009Z,474.00
2024-05-09T10:56:32.995Z,474.00
2024-05-09T10:57:33.095Z,476.00
2024-05-09T10:58:33.046Z,477.00
2024-05-09T10:59:33.121Z,476.00
2024-05-09T11:00:35.987Z,477.00
2024-05-09T11:01:33.185Z,477.00
2024-05-09T11:02:33.371Z,478.00
2024-05-09T11:03:33.263Z,478.00
2024-05-09T11:04:33.227Z,480.00
2024-05-09T11:05:33.258Z,484.00
2024-05-09T11:06:33.180Z,484.00
2024-05-09T11:07:33.193Z,484.00
2024-05-09T11:08:33.159Z,482.00
2024-05-09T11:09:33.191Z,482.00
2024-05-09T11:10:34.432Z,483.00
2024-05-09T11:11:33.171Z,481.00
2024-05-09T11:12:33.169Z,479.00
2024-05-09T11:13:33.194Z,481.00
2024-05-09T11:14:33.174Z,480.00
2024-05-09T11:15:33.202Z,480.00
2024-05-09T11:16:33.160Z,481.00
2024-05-09T11:17:33.267Z,480.00
2024-05-09T11:18:36.707Z,480.00
2024-05-09T11:19:34.337Z,479.00
2024-05-09T11:20:35.215Z,479.00
2024-05-09T11:21:33.245Z,480.00
2024-05-09T11:22:33.198Z,480.00
2024-05-09T11:23:33.273Z,481.00
2024-05-09T11:24:33.349Z,476.00
2024-05-09T11:25:33.381Z,477.00
2024-05-09T11:26:33.464Z,476.00
2024-05-09T11:27:33.548Z,473.00
2024-05-09T11:28:33.610Z,474.00
2024-05-09T11:29:33.652Z,474.00
2024-05-09T11:30:33.840Z,474.00
2024-05-09T11:31:34.006Z,475.00
2024-05-09T11:32:34.059Z,475.00
2024-05-09T11:33:34.022Z,474.00
2024-05-09T11:34:34.045Z,475.00
2024-05-09T11:35:34.074Z,474.00
2024-05-09T11:36:34.113Z,474.00
2024-05-09T11:37:36.068Z,475.00
2024-05-09T11:38:34.212Z,482.00
2024-05-09T11:39:34.182Z,479.00
2024-05-09T11:40:34.839Z,477.00
2024-05-09T11:41:34.171Z,480.00
2024-05-09T11:42:34.153Z,479.00
2024-05-09T11:43:34.229Z,476.00
2024-05-09T11:44:34.161Z,471.00
2024-05-09T11:45:34.327Z,471.00
2024-05-09T11:46:34.167Z,469.00
2024-05-09T11:47:34.318Z,467.00
2024-05-09T11:48:34.496Z,465.00
2024-05-09T11:49:34.274Z,467.00
2024-05-09T11:50:35.972Z,469.00
2024-05-09T11:51:34.250Z,469.00
2024-05-09T11:52:34.165Z,469.00
2024-05-09T11:53:34.194Z,469.00
2024-05-09T11:54:34.229Z,471.00
2024-05-09T11:55:34.303Z,467.00
2024-05-09T11:56:34.317Z,469.00
2024-05-09T11:57:34.312Z,471.00
2024-05-09T11:58:34.429Z,472.00
2024-05-09T11:59:34.398Z,475.00
2024-05-09T12:00:37.289Z,472.00
2024-05-09T12:01:34.510Z,470.00
2024-05-09T12:02:34.556Z,469.00
2024-05-09T12:03:34.628Z,469.00
2024-05-09T12:04:34.569Z,470.00
2024-05-09T12:05:34.857Z,468.00
2024-05-09T12:06:34.550Z,470.00
2024-05-09T12:07:34.450Z,471.00
2024-05-09T12:08:34.458Z,471.00
2024-05-09T12:09:34.515Z,472.00
2024-05-09T12:10:36.204Z,473.00
2024-05-09T12:11:34.642Z,472.00
2024-05-09T12:12:37.099Z,474.00
2024-05-09T12:13:34.618Z,475.00
2024-05-09T12:14:34.545Z,473.00
2024-05-09T12:15:34.600Z,473.00
2024-05-09T12:16:34.712Z,474.00
2024-05-09T12:17:34.698Z,476.00
2024-05-09T12:18:34.700Z,476.00
2024-05-09T12:19:34.707Z,471.00
2024-05-09T12:20:37.832Z,466.00
2024-05-09T12:21:35.615Z,466.00
2024-05-09T12:22:34.593Z,467.00
2024-05-09T12:23:34.605Z,469.00
2024-05-09T12:24:34.635Z,469.00
2024-05-09T12:25:34.614Z,468.00
2024-05-09T12:26:34.586Z,469.00
2024-05-09T12:27:34.622Z,471.00
2024-05-09T12:28:34.606Z,473.00
2024-05-09T12:29:36.253Z,474.00
2024-05-09T12:30:38.451Z,475.00
2024-05-09T12:31:35.681Z,476.00
2024-05-09T12:32:34.658Z,476.00
2024-05-09T12:33:34.744Z,475.00
2024-05-09T12:34:34.741Z,472.00
2024-05-09T12:35:34.632Z,472.00